sensor_id;sensor_type;location;lat;lon;timestamp;P1;durP1;ratioP1;P2;durP2;ratioP2
7359;SDS011;3720;48.274;7.796;2024-03-23T00:53:59;3.05;;;2.20;;
7359;SDS011;3720;48.274;7.796;2024-03-23T00:56:30;3.50;;;2.40;;
7359;SDS011;3720;48.274;7.796;2024-03-23T00:59:02;3.70;;;2.20;;
7359;SDS011;3720;48.274;7.796;2024-03-23T01:01:32;2.67;;;2.10;;
7359;SDS011;3720;48.274;7.796;2024-03-23T01:04:04;7.07;;;2.55;;
7359;SDS011;3720;48.274;7.796;2024-03-23T01:06:35;4.03;;;2.33;;
7359;SDS011;3720;48.274;7.796;2024-03-23T01:09:08;4.53;;;2.20;;
7359;SDS011;3720;48.274;7.796;2024-03-23T01:11:40;4.95;;;2.50;;
7359;SDS011;3720;48.274;7.796;2024-03-23T01:14:12;4.32;;;2.40;;
7359;SDS011;3720;48.274;7.796;2024-03-23T01:16:43;3.58;;;2.47;;
7359;SDS011;3720;48.274;7.796;2024-03-23T01:19:15;3.25;;;2.38;;
7359;SDS011;3720;48.274;7.796;2024-03-23T01:21:46;3.88;;;2.63;;
7359;SDS011;3720;48.274;7.796;2024-03-23T01:24:20;3.58;;;2.22;;
7359;SDS011;3720;48.274;7.796;2024-03-23T01:26:51;4.45;;;2.55;;
7359;SDS011;3720;48.274;7.796;2024-03-23T01:29:23;5.75;;;2.40;;
7359;SDS011;3720;48.274;7.796;2024-03-23T01:31:54;3.53;;;2.28;;
7359;SDS011;3720;48.274;7.796;2024-03-23T01:34:26;5.03;;;2.53;;
7359;SDS011;3720;48.274;7.796;2024-03-23T01:36:58;5.88;;;2.60;;
7359;SDS011;3720;48.274;7.796;2024-03-23T01:39:31;4.65;;;2.30;;
7359;SDS011;3720;48.274;7.796;2024-03-23T01:42:03;4.88;;;2.25;;
7359;SDS011;3720;48.274;7.796;2024-03-23T01:44:34;3.85;;;2.40;;
7359;SDS011;3720;48.274;7.796;2024-03-23T01:47:06;6.00;;;2.55;;
7359;SDS011;3720;48.274;7.796;2024-03-23T01:49:37;7.05;;;2.28;;
7359;SDS011;3720;48.274;7.796;2024-03-23T01:52:09;6.15;;;2.70;;
7359;SDS011;3720;48.274;7.796;2024-03-23T01:54:41;7.35;;;2.47;;
7359;SDS011;3720;48.274;7.796;2024-03-23T01:57:13;4.03;;;2.30;;
7359;SDS011;3720;48.274;7.796;2024-03-23T01:59:44;4.55;;;2.40;;
7359;SDS011;3720;48.274;7.796;2024-03-23T02:02:16;5.43;;;2.55;;
7359;SDS011;3720;48.274;7.796;2024-03-23T02:04:48;5.35;;;2.60;;
7359;SDS011;3720;48.274;7.796;2024-03-23T02:07:20;5.47;;;2.58;;
7359;SDS011;3720;48.274;7.796;2024-03-23T02:09:52;3.42;;;2.53;;
7359;SDS011;3720;48.274;7.796;2024-03-23T02:12:24;4.80;;;2.70;;
7359;SDS011;3720;48.274;7.796;2024-03-23T02:14:55;5.50;;;2.83;;
7359;SDS011;3720;48.274;7.796;2024-03-23T02:17:27;5.53;;;2.92;;
7359;SDS011;3720;48.274;7.796;2024-03-23T02:19:59;6.68;;;2.92;;
7359;SDS011;3720;48.274;7.796;2024-03-23T02:22:35;4.75;;;2.85;;
7359;SDS011;3720;48.274;7.796;2024-03-23T02:25:08;5.77;;;3.00;;
7359;SDS011;3720;48.274;7.796;2024-03-23T02:27:40;4.10;;;2.95;;
7359;SDS011;3720;48.274;7.796;2024-03-23T02:30:11;6.35;;;2.95;;
7359;SDS011;3720;48.274;7.796;2024-03-23T02:32:43;5.60;;;2.88;;
7359;SDS011;3720;48.274;7.796;2024-03-23T02:35:13;6.30;;;3.03;;
7359;SDS011;3720;48.274;7.796;2024-03-23T02:37:46;4.85;;;3.00;;
7359;SDS011;3720;48.274;7.796;2024-03-23T02:40:18;6.78;;;3.15;;
7359;SDS011;3720;48.274;7.796;2024-03-23T02:42:50;6.10;;;2.97;;
7359;SDS011;3720;48.274;7.796;2024-03-23T02:45:21;4.90;;;3.03;;
7359;SDS011;3720;48.274;7.796;2024-03-23T02:47:53;3.90;;;2.70;;
7359;SDS011;3720;48.274;7.796;2024-03-23T02:50:24;5.50;;;2.92;;
7359;SDS011;3720;48.274;7.796;2024-03-23T02:52:56;4.90;;;3.08;;
7359;SDS011;3720;48.274;7.796;2024-03-23T02:55:28;5.18;;;3.03;;
7359;SDS011;3720;48.274;7.796;2024-03-23T02:58:00;5.78;;;3.03;;
7359;SDS011;3720;48.274;7.796;2024-03-23T03:00:32;3.80;;;2.90;;
7359;SDS011;3720;48.274;7.796;2024-03-23T03:03:04;5.03;;;3.00;;
7359;SDS011;3720;48.274;7.796;2024-03-23T03:05:35;5.00;;;3.08;;
7359;SDS011;3720;48.274;7.796;2024-03-23T03:08:06;5.47;;;2.75;;
7359;SDS011;3720;48.274;7.796;2024-03-23T03:10:39;3.42;;;2.35;;
7359;SDS011;3720;48.274;7.796;2024-03-23T03:13:10;3.83;;;2.60;;
7359;SDS011;3720;48.274;7.796;2024-03-23T03:15:42;5.38;;;3.00;;
7359;SDS011;3720;48.274;7.796;2024-03-23T03:18:16;4.97;;;2.80;;
7359;SDS011;3720;48.274;7.796;2024-03-23T03:20:46;6.85;;;2.95;;
7359;SDS011;3720;48.274;7.796;2024-03-23T03:23:19;6.55;;;3.00;;
7359;SDS011;3720;48.274;7.796;2024-03-23T03:25:52;6.22;;;3.00;;
7359;SDS011;3720;48.274;7.796;2024-03-23T03:28:23;5.57;;;2.88;;
7359;SDS011;3720;48.274;7.796;2024-03-23T03:30:56;5.45;;;3.10;;
7359;SDS011;3720;48.274;7.796;2024-03-23T03:33:27;4.63;;;3.20;;
7359;SDS011;3720;48.274;7.796;2024-03-23T03:35:59;6.85;;;3.05;;
7359;SDS011;3720;48.274;7.796;2024-03-23T03:38:30;4.72;;;2.95;;
7359;SDS011;3720;48.274;7.796;2024-03-23T03:41:03;5.05;;;2.70;;
7359;SDS011;3720;48.274;7.796;2024-03-23T03:43:36;6.45;;;3.03;;
7359;SDS011;3720;48.274;7.796;2024-03-23T03:46:08;3.95;;;2.72;;
7359;SDS011;3720;48.274;7.796;2024-03-23T03:48:39;4.13;;;2.72;;
7359;SDS011;3720;48.274;7.796;2024-03-23T03:51:11;4.15;;;2.88;;
7359;SDS011;3720;48.274;7.796;2024-03-23T03:53:42;5.75;;;3.03;;
7359;SDS011;3720;48.274;7.796;2024-03-23T03:56:15;7.15;;;3.00;;
7359;SDS011;3720;48.274;7.796;2024-03-23T03:58:46;5.97;;;2.92;;
7359;SDS011;3720;48.274;7.796;2024-03-23T04:01:18;8.20;;;3.13;;
7359;SDS011;3720;48.274;7.796;2024-03-23T04:03:49;4.88;;;3.30;;
7359;SDS011;3720;48.274;7.796;2024-03-23T04:06:20;14.45;;;4.07;;
7359;SDS011;3720;48.274;7.796;2024-03-23T04:08:51;8.77;;;3.63;;
7359;SDS011;3720;48.274;7.796;2024-03-23T04:11:25;10.60;;;3.80;;
7359;SDS011;3720;48.274;7.796;2024-03-23T04:13:56;7.75;;;3.78;;
7359;SDS011;3720;48.274;7.796;2024-03-23T04:16:28;5.75;;;3.33;;
7359;SDS011;3720;48.274;7.796;2024-03-23T04:19:00;6.78;;;3.63;;
7359;SDS011;3720;48.274;7.796;2024-03-23T04:21:31;6.65;;;3.83;;
7359;SDS011;3720;48.274;7.796;2024-03-23T04:24:02;7.43;;;4.10;;
7359;SDS011;3720;48.274;7.796;2024-03-23T04:26:41;6.65;;;4.25;;
7359;SDS011;3720;48.274;7.796;2024-03-23T04:29:12;12.57;;;6.30;;
7359;SDS011;3720;48.274;7.796;2024-03-23T04:31:44;11.27;;;8.05;;
7359;SDS011;3720;48.274;7.796;2024-03-23T04:34:15;15.40;;;9.50;;
7359;SDS011;3720;48.274;7.796;2024-03-23T04:36:46;14.23;;;10.23;;
7359;SDS011;3720;48.274;7.796;2024-03-23T04:39:17;15.80;;;11.02;;
7359;SDS011;3720;48.274;7.796;2024-03-23T04:41:51;16.25;;;11.85;;
7359;SDS011;3720;48.274;7.796;2024-03-23T04:44:22;20.63;;;12.52;;
7359;SDS011;3720;48.274;7.796;2024-03-23T04:46:54;18.38;;;12.77;;
7359;SDS011;3720;48.274;7.796;2024-03-23T04:49:26;17.52;;;12.60;;
7359;SDS011;3720;48.274;7.796;2024-03-23T04:51:58;22.17;;;13.52;;
7359;SDS011;3720;48.274;7.796;2024-03-23T04:54:30;17.92;;;12.85;;
7359;SDS011;3720;48.274;7.796;2024-03-23T04:57:04;22.25;;;13.32;;
7359;SDS011;3720;48.274;7.796;2024-03-23T04:59:36;19.15;;;13.20;;
7359;SDS011;3720;48.274;7.796;2024-03-23T05:02:06;18.17;;;12.80;;
7359;SDS011;3720;48.274;7.796;2024-03-23T05:04:38;20.02;;;12.65;;
7359;SDS011;3720;48.274;7.796;2024-03-23T05:07:10;18.83;;;12.90;;
7359;SDS011;3720;48.274;7.796;2024-03-23T05:09:42;18.10;;;12.90;;
7359;SDS011;3720;48.274;7.796;2024-03-23T05:12:14;17.13;;;11.98;;
7359;SDS011;3720;48.274;7.796;2024-03-23T05:14:46;17.73;;;12.50;;
7359;SDS011;3720;48.274;7.796;2024-03-23T05:17:17;20.02;;;12.38;;
7359;SDS011;3720;48.274;7.796;2024-03-23T05:19:49;19.30;;;11.63;;
7359;SDS011;3720;48.274;7.796;2024-03-23T05:22:20;15.88;;;11.15;;
7359;SDS011;3720;48.274;7.796;2024-03-23T05:24:51;17.20;;;11.68;;
7359;SDS011;3720;48.274;7.796;2024-03-23T05:27:24;19.50;;;12.32;;
7359;SDS011;3720;48.274;7.796;2024-03-23T05:29:56;16.17;;;11.70;;
7359;SDS011;3720;48.274;7.796;2024-03-23T05:32:26;18.20;;;12.25;;
7359;SDS011;3720;48.274;7.796;2024-03-23T05:34:58;16.13;;;11.63;;
7359;SDS011;3720;48.274;7.796;2024-03-23T05:37:29;15.35;;;11.10;;
7359;SDS011;3720;48.274;7.796;2024-03-23T05:40:04;15.75;;;10.52;;
7359;SDS011;3720;48.274;7.796;2024-03-23T05:42:36;13.65;;;8.90;;
7359;SDS011;3720;48.274;7.796;2024-03-23T05:45:09;11.15;;;7.65;;
7359;SDS011;3720;48.274;7.796;2024-03-23T05:47:39;10.32;;;6.32;;
7359;SDS011;3720;48.274;7.796;2024-03-23T05:50:11;6.53;;;3.10;;
7359;SDS011;3720;48.274;7.796;2024-03-23T05:52:42;2.30;;;1.83;;
7359;SDS011;3720;48.274;7.796;2024-03-23T05:55:14;2.42;;;1.17;;
7359;SDS011;3720;48.274;7.796;2024-03-23T05:57:47;0.65;;;0.60;;
7359;SDS011;3720;48.274;7.796;2024-03-23T06:00:18;0.60;;;0.40;;
7359;SDS011;3720;48.274;7.796;2024-03-23T06:02:49;2.67;;;0.50;;
7359;SDS011;3720;48.274;7.796;2024-03-23T06:05:21;2.45;;;0.60;;
7359;SDS011;3720;48.274;7.796;2024-03-23T06:07:53;2.10;;;0.60;;
7359;SDS011;3720;48.274;7.796;2024-03-23T06:10:25;1.10;;;0.60;;
7359;SDS011;3720;48.274;7.796;2024-03-23T06:12:57;1.33;;;0.60;;
7359;SDS011;3720;48.274;7.796;2024-03-23T06:15:29;0.93;;;0.60;;
7359;SDS011;3720;48.274;7.796;2024-03-23T06:18:01;0.80;;;0.70;;
7359;SDS011;3720;48.274;7.796;2024-03-23T06:20:33;0.40;;;0.40;;
7359;SDS011;3720;48.274;7.796;2024-03-23T06:23:04;0.82;;;0.60;;
7359;SDS011;3720;48.274;7.796;2024-03-23T06:25:36;0.70;;;0.45;;
7359;SDS011;3720;48.274;7.796;2024-03-23T06:28:08;1.73;;;0.60;;
7359;SDS011;3720;48.274;7.796;2024-03-23T06:30:41;0.47;;;0.43;;
7359;SDS011;3720;48.274;7.796;2024-03-23T06:33:12;0.45;;;0.38;;
7359;SDS011;3720;48.274;7.796;2024-03-23T06:35:49;1.35;;;0.40;;
7359;SDS011;3720;48.274;7.796;2024-03-23T06:38:20;0.77;;;0.50;;
7359;SDS011;3720;48.274;7.796;2024-03-23T06:40:52;1.52;;;0.30;;
7359;SDS011;3720;48.274;7.796;2024-03-23T06:43:24;0.45;;;0.35;;
7359;SDS011;3720;48.274;7.796;2024-03-23T06:45:56;0.20;;;0.20;;
7359;SDS011;3720;48.274;7.796;2024-03-23T06:48:27;0.50;;;0.40;;
7359;SDS011;3720;48.274;7.796;2024-03-23T06:50:59;0.75;;;0.40;;
7359;SDS011;3720;48.274;7.796;2024-03-23T06:53:30;0.30;;;0.30;;
7359;SDS011;3720;48.274;7.796;2024-03-23T06:56:02;0.57;;;0.38;;
7359;SDS011;3720;48.274;7.796;2024-03-23T06:58:34;0.47;;;0.32;;
7359;SDS011;3720;48.274;7.796;2024-03-23T07:01:06;0.47;;;0.32;;
7359;SDS011;3720;48.274;7.796;2024-03-23T07:03:37;0.30;;;0.28;;
7359;SDS011;3720;48.274;7.796;2024-03-23T07:06:09;1.77;;;0.30;;
7359;SDS011;3720;48.274;7.796;2024-03-23T07:08:40;0.30;;;0.20;;
7359;SDS011;3720;48.274;7.796;2024-03-23T07:11:12;0.35;;;0.20;;
7359;SDS011;3720;48.274;7.796;2024-03-23T07:13:50;0.30;;;0.30;;
7359;SDS011;3720;48.274;7.796;2024-03-23T07:16:24;0.28;;;0.28;;
7359;SDS011;3720;48.274;7.796;2024-03-23T07:18:57;0.30;;;0.30;;
7359;SDS011;3720;48.274;7.796;2024-03-23T07:21:28;0.45;;;0.35;;
7359;SDS011;3720;48.274;7.796;2024-03-23T07:23:59;0.55;;;0.35;;
7359;SDS011;3720;48.274;7.796;2024-03-23T07:26:31;0.85;;;0.38;;
7359;SDS011;3720;48.274;7.796;2024-03-23T07:29:03;0.85;;;0.40;;
7359;SDS011;3720;48.274;7.796;2024-03-23T07:31:35;0.60;;;0.40;;
7359;SDS011;3720;48.274;7.796;2024-03-23T07:34:06;0.40;;;0.40;;
7359;SDS011;3720;48.274;7.796;2024-03-23T07:36:38;0.40;;;0.40;;
7359;SDS011;3720;48.274;7.796;2024-03-23T07:39:09;1.75;;;0.35;;
7359;SDS011;3720;48.274;7.796;2024-03-23T07:41:43;0.82;;;0.40;;
7359;SDS011;3720;48.274;7.796;2024-03-23T07:44:16;0.52;;;0.40;;
7359;SDS011;3720;48.274;7.796;2024-03-23T07:46:48;1.45;;;0.47;;
7359;SDS011;3720;48.274;7.796;2024-03-23T07:49:19;0.40;;;0.40;;
7359;SDS011;3720;48.274;7.796;2024-03-23T07:51:51;0.80;;;0.40;;
7359;SDS011;3720;48.274;7.796;2024-03-23T07:54:22;0.95;;;0.50;;
7359;SDS011;3720;48.274;7.796;2024-03-23T07:56:53;4.07;;;0.90;;
7359;SDS011;3720;48.274;7.796;2024-03-23T07:59:26;3.08;;;0.93;;
7359;SDS011;3720;48.274;7.796;2024-03-23T08:02:01;2.28;;;0.80;;
7359;SDS011;3720;48.274;7.796;2024-03-23T08:04:32;4.45;;;1.73;;
7359;SDS011;3720;48.274;7.796;2024-03-23T08:07:04;7.25;;;1.90;;
7359;SDS011;3720;48.274;7.796;2024-03-23T08:09:35;6.55;;;2.05;;
7359;SDS011;3720;48.274;7.796;2024-03-23T08:12:06;8.25;;;2.38;;
7359;SDS011;3720;48.274;7.796;2024-03-23T08:14:39;8.43;;;2.45;;
7359;SDS011;3720;48.274;7.796;2024-03-23T08:17:11;9.63;;;2.60;;
7359;SDS011;3720;48.274;7.796;2024-03-23T08:19:42;7.93;;;2.70;;
7359;SDS011;3720;48.274;7.796;2024-03-23T08:22:14;10.23;;;3.13;;
7359;SDS011;3720;48.274;7.796;2024-03-23T08:24:44;8.40;;;2.83;;
7359;SDS011;3720;48.274;7.796;2024-03-23T08:27:16;6.40;;;2.85;;
7359;SDS011;3720;48.274;7.796;2024-03-23T08:29:48;9.20;;;3.17;;
7359;SDS011;3720;48.274;7.796;2024-03-23T08:32:20;8.50;;;3.03;;
7359;SDS011;3720;48.274;7.796;2024-03-23T08:34:51;10.02;;;3.10;;
7359;SDS011;3720;48.274;7.796;2024-03-23T08:37:23;8.77;;;3.40;;
7359;SDS011;3720;48.274;7.796;2024-03-23T08:39:54;9.63;;;3.58;;
7359;SDS011;3720;48.274;7.796;2024-03-23T08:42:26;7.15;;;3.22;;
7359;SDS011;3720;48.274;7.796;2024-03-23T08:44:58;10.05;;;3.33;;
7359;SDS011;3720;48.274;7.796;2024-03-23T08:47:32;11.40;;;3.30;;
7359;SDS011;3720;48.274;7.796;2024-03-23T08:50:05;11.30;;;3.95;;
7359;SDS011;3720;48.274;7.796;2024-03-23T08:52:37;13.07;;;4.05;;
7359;SDS011;3720;48.274;7.796;2024-03-23T08:55:08;11.40;;;4.50;;
7359;SDS011;3720;48.274;7.796;2024-03-23T08:57:40;16.50;;;4.55;;
7359;SDS011;3720;48.274;7.796;2024-03-23T09:00:14;12.75;;;4.53;;
7359;SDS011;3720;48.274;7.796;2024-03-23T09:02:47;10.57;;;4.05;;
7359;SDS011;3720;48.274;7.796;2024-03-23T09:05:19;14.43;;;4.28;;
7359;SDS011;3720;48.274;7.796;2024-03-23T09:07:49;12.73;;;4.30;;
7359;SDS011;3720;48.274;7.796;2024-03-23T09:10:21;15.65;;;4.40;;
7359;SDS011;3720;48.274;7.796;2024-03-23T09:12:52;11.35;;;4.03;;
7359;SDS011;3720;48.274;7.796;2024-03-23T09:15:25;14.32;;;4.57;;
7359;SDS011;3720;48.274;7.796;2024-03-23T09:17:56;11.02;;;4.00;;
7359;SDS011;3720;48.274;7.796;2024-03-23T09:20:32;10.65;;;3.63;;
7359;SDS011;3720;48.274;7.796;2024-03-23T09:23:03;10.13;;;3.85;;
7359;SDS011;3720;48.274;7.796;2024-03-23T09:25:38;13.10;;;3.60;;
7359;SDS011;3720;48.274;7.796;2024-03-23T09:28:09;11.98;;;3.63;;
7359;SDS011;3720;48.274;7.796;2024-03-23T09:30:43;10.88;;;3.13;;
7359;SDS011;3720;48.274;7.796;2024-03-23T09:33:13;12.80;;;3.53;;
7359;SDS011;3720;48.274;7.796;2024-03-23T09:35:45;9.30;;;2.92;;
7359;SDS011;3720;48.274;7.796;2024-03-23T09:38:17;10.80;;;3.40;;
7359;SDS011;3720;48.274;7.796;2024-03-23T09:40:50;11.23;;;3.58;;
7359;SDS011;3720;48.274;7.796;2024-03-23T09:43:23;13.25;;;3.38;;
7359;SDS011;3720;48.274;7.796;2024-03-23T09:45:57;10.48;;;3.50;;
7359;SDS011;3720;48.274;7.796;2024-03-23T09:48:27;15.00;;;3.63;;
7359;SDS011;3720;48.274;7.796;2024-03-23T09:50:59;9.60;;;2.95;;
7359;SDS011;3720;48.274;7.796;2024-03-23T09:53:32;12.82;;;3.50;;
7359;SDS011;3720;48.274;7.796;2024-03-23T09:56:04;10.23;;;3.10;;
7359;SDS011;3720;48.274;7.796;2024-03-23T09:58:35;10.15;;;3.25;;
7359;SDS011;3720;48.274;7.796;2024-03-23T10:01:08;9.20;;;2.85;;
7359;SDS011;3720;48.274;7.796;2024-03-23T10:03:43;13.23;;;3.25;;
7359;SDS011;3720;48.274;7.796;2024-03-23T10:06:15;9.15;;;3.03;;
7359;SDS011;3720;48.274;7.796;2024-03-23T10:08:52;9.60;;;3.35;;
7359;SDS011;3720;48.274;7.796;2024-03-23T10:11:25;6.88;;;2.40;;
7359;SDS011;3720;48.274;7.796;2024-03-23T10:13:57;8.40;;;2.60;;
7359;SDS011;3720;48.274;7.796;2024-03-23T10:16:30;13.15;;;3.05;;
7359;SDS011;3720;48.274;7.796;2024-03-23T10:19:01;4.38;;;1.80;;
7359;SDS011;3720;48.274;7.796;2024-03-23T10:21:33;5.47;;;1.80;;
7359;SDS011;3720;48.274;7.796;2024-03-23T10:24:07;6.85;;;1.90;;
7359;SDS011;3720;48.274;7.796;2024-03-23T10:26:39;5.60;;;1.90;;
7359;SDS011;3720;48.274;7.796;2024-03-23T10:29:10;7.15;;;1.70;;
7359;SDS011;3720;48.274;7.796;2024-03-23T10:31:44;7.80;;;2.10;;
7359;SDS011;3720;48.274;7.796;2024-03-23T10:34:17;5.80;;;2.13;;
7359;SDS011;3720;48.274;7.796;2024-03-23T10:36:56;5.70;;;2.30;;
7359;SDS011;3720;48.274;7.796;2024-03-23T10:39:29;5.85;;;2.33;;
7359;SDS011;3720;48.274;7.796;2024-03-23T10:42:03;6.07;;;2.03;;
7359;SDS011;3720;48.274;7.796;2024-03-23T10:44:36;5.70;;;2.00;;
7359;SDS011;3720;48.274;7.796;2024-03-23T10:47:09;5.35;;;1.70;;
7359;SDS011;3720;48.274;7.796;2024-03-23T10:49:40;6.70;;;1.95;;
7359;SDS011;3720;48.274;7.796;2024-03-23T10:52:12;5.50;;;1.75;;
7359;SDS011;3720;48.274;7.796;2024-03-23T10:54:43;8.48;;;2.05;;
7359;SDS011;3720;48.274;7.796;2024-03-23T10:57:20;6.13;;;1.70;;
7359;SDS011;3720;48.274;7.796;2024-03-23T10:59:53;8.07;;;1.92;;
7359;SDS011;3720;48.274;7.796;2024-03-23T11:02:27;5.75;;;1.70;;
7359;SDS011;3720;48.274;7.796;2024-03-23T11:04:59;4.72;;;1.52;;
7359;SDS011;3720;48.274;7.796;2024-03-23T11:07:31;3.40;;;1.40;;
7359;SDS011;3720;48.274;7.796;2024-03-23T11:10:03;7.60;;;1.85;;
7359;SDS011;3720;48.274;7.796;2024-03-23T11:12:56;4.57;;;1.50;;
7359;SDS011;3720;48.274;7.796;2024-03-23T11:15:27;5.78;;;1.50;;
7359;SDS011;3720;48.274;7.796;2024-03-23T11:18:04;3.63;;;1.10;;
7359;SDS011;3720;48.274;7.796;2024-03-23T11:20:38;5.72;;;1.63;;
7359;SDS011;3720;48.274;7.796;2024-03-23T11:23:10;4.82;;;1.42;;
7359;SDS011;3720;48.274;7.796;2024-03-23T11:25:57;6.07;;;1.52;;
7359;SDS011;3720;48.274;7.796;2024-03-23T11:28:29;5.15;;;2.08;;
7359;SDS011;3720;48.274;7.796;2024-03-23T11:31:00;7.88;;;2.30;;
7359;SDS011;3720;48.274;7.796;2024-03-23T11:33:34;7.18;;;1.90;;
7359;SDS011;3720;48.274;7.796;2024-03-23T11:36:05;6.53;;;2.00;;
7359;SDS011;3720;48.274;7.796;2024-03-23T11:38:38;5.00;;;1.70;;
7359;SDS011;3720;48.274;7.796;2024-03-23T11:41:08;6.38;;;1.80;;
7359;SDS011;3720;48.274;7.796;2024-03-23T11:43:40;4.75;;;1.70;;
7359;SDS011;3720;48.274;7.796;2024-03-23T11:46:11;5.85;;;1.55;;
7359;SDS011;3720;48.274;7.796;2024-03-23T11:48:54;7.32;;;1.55;;
7359;SDS011;3720;48.274;7.796;2024-03-23T11:51:25;3.13;;;1.30;;
7359;SDS011;3720;48.274;7.796;2024-03-23T11:54:06;10.07;;;1.55;;
7359;SDS011;3720;48.274;7.796;2024-03-23T11:56:38;6.05;;;1.60;;
7359;SDS011;3720;48.274;7.796;2024-03-23T11:59:09;6.55;;;1.70;;
7359;SDS011;3720;48.274;7.796;2024-03-23T12:01:41;10.15;;;2.15;;
7359;SDS011;3720;48.274;7.796;2024-03-23T12:04:14;5.65;;;1.60;;
7359;SDS011;3720;48.274;7.796;2024-03-23T12:07:11;4.63;;;1.67;;
7359;SDS011;3720;48.274;7.796;2024-03-23T12:09:44;7.97;;;2.15;;
7359;SDS011;3720;48.274;7.796;2024-03-23T12:12:16;7.85;;;2.10;;
7359;SDS011;3720;48.274;7.796;2024-03-23T12:15:00;8.38;;;2.00;;
7359;SDS011;3720;48.274;7.796;2024-03-23T12:17:32;6.25;;;1.77;;
7359;SDS011;3720;48.274;7.796;2024-03-23T12:20:08;6.07;;;1.27;;
7359;SDS011;3720;48.274;7.796;2024-03-23T12:22:39;5.18;;;1.33;;
7359;SDS011;3720;48.274;7.796;2024-03-23T12:25:11;4.78;;;1.25;;
7359;SDS011;3720;48.274;7.796;2024-03-23T12:27:42;4.15;;;1.42;;
7359;SDS011;3720;48.274;7.796;2024-03-23T12:30:14;4.72;;;0.93;;
7359;SDS011;3720;48.274;7.796;2024-03-23T12:32:44;3.42;;;1.10;;
7359;SDS011;3720;48.274;7.796;2024-03-23T12:35:18;3.17;;;0.60;;
7359;SDS011;3720;48.274;7.796;2024-03-23T12:37:48;5.85;;;1.00;;
7359;SDS011;3720;48.274;7.796;2024-03-23T12:40:20;5.07;;;0.80;;
7359;SDS011;3720;48.274;7.796;2024-03-23T12:42:51;3.22;;;0.90;;
7359;SDS011;3720;48.274;7.796;2024-03-23T12:45:23;3.92;;;1.10;;
7359;SDS011;3720;48.274;7.796;2024-03-23T12:47:54;3.45;;;1.13;;
7359;SDS011;3720;48.274;7.796;2024-03-23T12:50:27;4.10;;;1.10;;
7359;SDS011;3720;48.274;7.796;2024-03-23T12:52:58;3.17;;;1.13;;
7359;SDS011;3720;48.274;7.796;2024-03-23T12:55:30;6.38;;;1.13;;
7359;SDS011;3720;48.274;7.796;2024-03-23T12:58:01;5.07;;;1.20;;
7359;SDS011;3720;48.274;7.796;2024-03-23T13:00:33;6.90;;;1.50;;
7359;SDS011;3720;48.274;7.796;2024-03-23T13:03:04;4.50;;;1.00;;
7359;SDS011;3720;48.274;7.796;2024-03-23T13:05:37;3.33;;;1.00;;
7359;SDS011;3720;48.274;7.796;2024-03-23T13:08:08;4.90;;;1.30;;
7359;SDS011;3720;48.274;7.796;2024-03-23T13:10:40;4.63;;;1.00;;
7359;SDS011;3720;48.274;7.796;2024-03-23T13:13:11;4.18;;;1.27;;
7359;SDS011;3720;48.274;7.796;2024-03-23T13:15:43;5.85;;;1.30;;
7359;SDS011;3720;48.274;7.796;2024-03-23T13:18:20;3.60;;;1.10;;
7359;SDS011;3720;48.274;7.796;2024-03-23T13:20:53;4.22;;;1.00;;
7359;SDS011;3720;48.274;7.796;2024-03-23T13:23:24;5.63;;;1.15;;
7359;SDS011;3720;48.274;7.796;2024-03-23T13:25:56;5.18;;;1.10;;
7359;SDS011;3720;48.274;7.796;2024-03-23T13:28:27;2.78;;;1.08;;
7359;SDS011;3720;48.274;7.796;2024-03-23T13:30:58;5.20;;;1.23;;
7359;SDS011;3720;48.274;7.796;2024-03-23T13:33:33;5.32;;;1.45;;
7359;SDS011;3720;48.274;7.796;2024-03-23T13:36:07;4.47;;;1.20;;
7359;SDS011;3720;48.274;7.796;2024-03-23T13:38:38;4.28;;;1.00;;
7359;SDS011;3720;48.274;7.796;2024-03-23T13:41:10;4.88;;;1.23;;
7359;SDS011;3720;48.274;7.796;2024-03-23T13:43:42;4.45;;;1.20;;
7359;SDS011;3720;48.274;7.796;2024-03-23T13:46:14;3.65;;;1.00;;
7359;SDS011;3720;48.274;7.796;2024-03-23T13:48:45;8.05;;;1.30;;
7359;SDS011;3720;48.274;7.796;2024-03-23T13:51:22;4.72;;;1.00;;
7359;SDS011;3720;48.274;7.796;2024-03-23T13:53:55;4.13;;;1.17;;
7359;SDS011;3720;48.274;7.796;2024-03-23T13:56:30;4.97;;;1.30;;
7359;SDS011;3720;48.274;7.796;2024-03-23T13:59:01;3.60;;;1.25;;
7359;SDS011;3720;48.274;7.796;2024-03-23T14:01:33;7.05;;;1.25;;
7359;SDS011;3720;48.274;7.796;2024-03-23T14:04:04;5.90;;;1.20;;
7359;SDS011;3720;48.274;7.796;2024-03-23T14:06:38;3.67;;;1.02;;
7359;SDS011;3720;48.274;7.796;2024-03-23T14:09:10;5.88;;;1.38;;
7359;SDS011;3720;48.274;7.796;2024-03-23T14:11:41;5.32;;;1.20;;
7359;SDS011;3720;48.274;7.796;2024-03-23T14:14:13;4.80;;;1.08;;
7359;SDS011;3720;48.274;7.796;2024-03-23T14:16:46;9.18;;;1.10;;
7359;SDS011;3720;48.274;7.796;2024-03-23T14:19:19;2.88;;;0.80;;
7359;SDS011;3720;48.274;7.796;2024-03-23T14:21:52;3.28;;;0.90;;
7359;SDS011;3720;48.274;7.796;2024-03-23T14:24:24;2.47;;;0.80;;
7359;SDS011;3720;48.274;7.796;2024-03-23T14:26:54;5.40;;;1.00;;
7359;SDS011;3720;48.274;7.796;2024-03-23T14:29:26;2.45;;;0.75;;
7359;SDS011;3720;48.274;7.796;2024-03-23T14:31:57;1.95;;;0.77;;
7359;SDS011;3720;48.274;7.796;2024-03-23T14:34:29;2.67;;;0.82;;
7359;SDS011;3720;48.274;7.796;2024-03-23T14:37:02;3.42;;;0.98;;
7359;SDS011;3720;48.274;7.796;2024-03-23T14:39:35;3.83;;;0.90;;
7359;SDS011;3720;48.274;7.796;2024-03-23T14:42:07;2.80;;;0.77;;
7359;SDS011;3720;48.274;7.796;2024-03-23T14:44:39;2.42;;;0.90;;
7359;SDS011;3720;48.274;7.796;2024-03-23T14:47:10;2.75;;;1.10;;
7359;SDS011;3720;48.274;7.796;2024-03-23T14:49:42;6.38;;;1.20;;
7359;SDS011;3720;48.274;7.796;2024-03-23T14:52:18;4.25;;;1.15;;
7359;SDS011;3720;48.274;7.796;2024-03-23T14:54:50;5.03;;;1.20;;
7359;SDS011;3720;48.274;7.796;2024-03-23T14:57:21;2.83;;;0.70;;
7359;SDS011;3720;48.274;7.796;2024-03-23T14:59:53;1.85;;;0.70;;
7359;SDS011;3720;48.274;7.796;2024-03-23T15:02:24;3.40;;;0.65;;
7359;SDS011;3720;48.274;7.796;2024-03-23T15:04:57;6.35;;;1.10;;
7359;SDS011;3720;48.274;7.796;2024-03-23T15:07:30;4.55;;;1.00;;
7359;SDS011;3720;48.274;7.796;2024-03-23T15:10:02;1.77;;;0.57;;
7359;SDS011;3720;48.274;7.796;2024-03-23T15:12:34;2.47;;;0.60;;
7359;SDS011;3720;48.274;7.796;2024-03-23T15:15:07;2.25;;;0.57;;
7359;SDS011;3720;48.274;7.796;2024-03-23T15:17:38;0.65;;;0.30;;
7359;SDS011;3720;48.274;7.796;2024-03-23T15:20:11;1.75;;;0.40;;
7359;SDS011;3720;48.274;7.796;2024-03-23T15:22:44;0.75;;;0.40;;
7359;SDS011;3720;48.274;7.796;2024-03-23T15:25:16;1.77;;;0.60;;
7359;SDS011;3720;48.274;7.796;2024-03-23T15:27:47;1.63;;;0.57;;
7359;SDS011;3720;48.274;7.796;2024-03-23T15:30:19;2.35;;;0.60;;
7359;SDS011;3720;48.274;7.796;2024-03-23T15:32:49;2.53;;;0.70;;
7359;SDS011;3720;48.274;7.796;2024-03-23T15:35:22;2.50;;;0.60;;
7359;SDS011;3720;48.274;7.796;2024-03-23T15:37:55;3.33;;;0.60;;
7359;SDS011;3720;48.274;7.796;2024-03-23T15:40:26;1.50;;;0.50;;
7359;SDS011;3720;48.274;7.796;2024-03-23T15:42:57;1.88;;;0.60;;
7359;SDS011;3720;48.274;7.796;2024-03-23T15:45:29;3.60;;;0.55;;
7359;SDS011;3720;48.274;7.796;2024-03-23T15:48:00;1.27;;;0.50;;
7359;SDS011;3720;48.274;7.796;2024-03-23T15:50:32;0.73;;;0.60;;
7359;SDS011;3720;48.274;7.796;2024-03-23T15:53:04;2.15;;;0.57;;
7359;SDS011;3720;48.274;7.796;2024-03-23T15:55:37;3.13;;;0.70;;
7359;SDS011;3720;48.274;7.796;2024-03-23T15:58:08;3.45;;;0.70;;
7359;SDS011;3720;48.274;7.796;2024-03-23T16:00:40;1.63;;;0.60;;
7359;SDS011;3720;48.274;7.796;2024-03-23T16:03:11;3.80;;;0.60;;
7359;SDS011;3720;48.274;7.796;2024-03-23T16:05:43;3.25;;;0.65;;
7359;SDS011;3720;48.274;7.796;2024-03-23T16:08:22;2.00;;;0.50;;
7359;SDS011;3720;48.274;7.796;2024-03-23T16:10:59;1.60;;;0.55;;
7359;SDS011;3720;48.274;7.796;2024-03-23T16:13:30;3.17;;;0.80;;
7359;SDS011;3720;48.274;7.796;2024-03-23T16:16:03;2.13;;;0.65;;
7359;SDS011;3720;48.274;7.796;2024-03-23T16:18:37;2.53;;;0.80;;
7359;SDS011;3720;48.274;7.796;2024-03-23T16:21:09;2.05;;;0.68;;
7359;SDS011;3720;48.274;7.796;2024-03-23T16:23:41;5.55;;;0.70;;
7359;SDS011;3720;48.274;7.796;2024-03-23T16:26:15;4.20;;;1.20;;
7359;SDS011;3720;48.274;7.796;2024-03-23T16:28:47;2.42;;;0.90;;
7359;SDS011;3720;48.274;7.796;2024-03-23T16:31:18;2.60;;;0.70;;
7359;SDS011;3720;48.274;7.796;2024-03-23T16:33:50;2.28;;;0.80;;
7359;SDS011;3720;48.274;7.796;2024-03-23T16:36:22;2.17;;;0.73;;